ADDS METAR Data INFO
IDs: Format: Raw Decoded Include TAF

Data at: 0634 UTC 15 Dec 2017

KFOK 150553Z AUTO 00000KT 10SM CLR M12/M16 A3009 RMK AO2 SLP190 T11171161 11033 21117 52009
KFOK 150453Z AUTO 29005KT 10SM CLR M08/M14 A3008 RMK AO2 SLP187 T10781144 410061089
KFOK 150353Z 29005KT 10SM CLR M08/M14 A3007 RMK AO2 SLP184 T10781144
KFOK 150253Z 25005KT 10SM CLR M07/M14 A3006 RMK AO2 SLP181 T10721139 51033
KFOK 150153Z 27007KT 10SM CLR M06/M13 A3003 RMK AO2 SLP171 T10611133
KFOK 150053Z 26004KT 10SM CLR M05/M13 A3001 RMK AO2 SLP162 T10501128
KFOK 142353Z 29010KT 10SM CLR M04/M12 A2997 RMK AO2 SLP148 T10391122 11006 21039 53041
KFOK 142253Z 30009KT 10SM CLR M03/M12 A2992 RMK AO2 SLP132 T10331117
KFOK 142153Z 27008KT 10SM BKN046 M02/M11 A2989 RMK AO2 SLP121 T10221106
KFOK 142053Z 31007KT 10SM OVC046 M01/M09 A2984 RMK AO2 SLP107 T10111089 51040
KFOK 141953Z 30013G20KT 10SM BKN042 M01/M09 A2981 RMK AO2 SLP095 T10111089
KFOK 141853Z 31015KT 10SM BKN035 M01/M08 A2977 RMK AO2 SLP081 T10111078
KFOK 141753Z 31012KT 10SM SCT022 M01/M06 A2973 RMK AO2 SLP067 60003 T10111056 11011 21028 51020
KFOK 141720Z 32012G17KT 10SM SCT017 M02/M06 A2973 RMK AO2 T10221061
KFOK 141653Z 32008KT 10SM BKN015 OVC031 M02/M06 A2971 RMK AO2 SLP062 T10221056 $
KFOK 141640Z 34010KT 10SM BKN015 BKN033 BKN055 M03/M06 A2971 RMK AO2 T10281061 $
KFOK 141632Z 36008KT 8SM SCT015 BKN031 OVC055 M02/M05 A2971 RMK AO2 T10221050 $
KFOK 141621Z 34010KT 9SM SCT015 BKN022 OVC055 M03/M05 A2970 RMK AO2 T10281050 $
KFOK 141553Z 35010KT 9SM OVC012 M03/M05 A2969 RMK AO2 SNE27 SLP056 P0000 T10281050 $
KFOK 141503Z 36010KT 5SM -SN BR SCT009 BKN013 OVC030 M03/M04 A2968 RMK AO2 P0000 T10281044 $
KFOK 141453Z 36009KT 2SM -SN BR SCT007 BKN013 OVC032 M02/M04 A2967 RMK AO2 SLP047 P0001 60003 T10221044 53024 $
KFOK 141437Z 02007KT 2SM -SN BR BKN008 BKN012 OVC032 M03/M04 A2966 RMK AO2 P0001 T10281039 $
KFOK 141429Z 36007KT 2SM -SN BR FEW008 BKN027 OVC033 M03/M04 A2965 RMK AO2 P0001 T10281039 $
KFOK 141427Z 36006KT 1 3/4SM -SN BR SCT008 SCT024 OVC033 M03/M04 A2965 RMK AO2 P0001 T10281039 $
KFOK 141402Z 01005KT 1SM -SN BR FEW008 BKN016 OVC026 M03/M04 A2963 RMK AO2 P0000 T10281039 $
KFOK 141353Z 01004KT 3/4SM -SN BR FEW008 OVC014 M03/M04 A2963 RMK AO2 SLP035 P0002 T10281039 $
KFOK 141339Z 02006KT 1/2SM SN FZFG FEW007 OVC014 M03/M04 A2962 RMK AO2 P0002 T10281044 $
KFOK 141331Z 03006KT 1/2SM SN FZFG FEW007 OVC016 M03/M04 A2962 RMK AO2 P0001 T10281044 $
KFOK 141318Z 03007KT 1 1/2SM -SN BR FEW007 OVC024 M03/M04 A2962 RMK AO2 P0001 T10281044 $
KFOK 141300Z 04007KT 1 1/2SM -SN BR FEW018 OVC025 M03/M04 A2960 RMK AO2 P0000 T10281044 $
KFOK 141253Z 02007KT 1 1/2SM -SN BR BKN007 M03/M04 A2960 RMK AO2 SNB30 SLP024 P0000 T10281044 $
KFOK 141249Z 03010KT 1 1/2SM -SN BR BKN007 M03/M04 A2960 RMK AO2 SNB30 P0000 $
KFOK 141242Z 04008KT 2SM -SN BR BKN007 M03/M04 A2959 RMK AO2 SNB30 P0000 T10281044 $
KFOK 141202Z AUTO 02007KT 5SM -SN BR BKN008 OVC015 M02/M04 A2958 RMK AO2 CIG 007V011 P0000 T10221044
KFOK 141153Z AUTO 02010KT 7SM -SN BKN010 OVC013 M02/M04 A2958 RMK AO2 SNE18B41 SLP015 P0000 60003 70003 T10221044 11022 21050 55007
KFOK 141146Z AUTO 01007KT 8SM -SN FEW006 BKN013 OVC047 M02/M04 A2957 RMK AO2 SNE18B41 P0000 T10221044
KFOK 141126Z AUTO 03007KT 8SM FEW005 BKN017 OVC046 M03/M04 A2956 RMK AO2 SNE18 P0000 T10281044
KFOK 141103Z AUTO 03005KT 4SM -SN BR OVC017 M03/M05 A2955 RMK AO2 P0000 T10331050
KFOK 141053Z AUTO 04006KT 2SM -SN BR OVC018 M03/M05 A2956 RMK AO2 SLP008 P0000 T10331050
KFOK 141045Z AUTO 04005KT 1 1/2SM -SN BR OVC018 M03/M06 A2956 RMK AO2 P0000 T10331056
KFOK 141026Z AUTO 01005KT 2 1/2SM -SN BR BKN018 BKN027 OVC035 M04/M06 A2957 RMK AO2 P0000 T10391056
KFOK 141016Z AUTO 36005KT 5SM -SN BR FEW018 BKN036 OVC045 M04/M06 A2957 RMK AO2 P0000 T10391061
KFOK 141009Z AUTO 01005KT 6SM -SN BR FEW018 BKN028 OVC045 M04/M06 A2957 RMK AO2 P0000 T10391061
KFOK 140953Z AUTO 03003KT 4SM -SN BR FEW023 BKN047 OVC055 M04/M07 A2958 RMK AO2 SLP015 P0001 T10441067
KFOK 140938Z AUTO 01003KT 3SM -SN BR SCT021 BKN028 OVC036 M04/M07 A2958 RMK AO2 P0001 T10441067
KFOK 140925Z AUTO 00000KT 3SM -SN BR FEW017 BKN030 OVC043 M04/M07 A2959 RMK AO2 P0001 T10441067
KFOK 140920Z AUTO 02003KT 2 1/2SM -SN BR SCT019 BKN028 OVC043 M04/M07 A2958 RMK AO2 P0001 T10441067
KFOK 140902Z AUTO 36003KT 1 1/2SM -SN BKN021 OVC037 M04/M07 A2960 RMK AO2 P0001 T10441072
KFOK 140853Z AUTO 01004KT 2SM -SN BKN021 OVC037 M04/M07 A2960 RMK AO2 SLP023 P0001 60002 T10441072 56024
KFOK 140850Z AUTO 02004KT 2SM -SN BKN019 OVC037 M04/M07 A2960 RMK AO2 P0001
KFOK 140842Z AUTO 03003KT 1 3/4SM -SN BKN015 OVC037 M04/M07 A2960 RMK AO2 P0001 T10441072
KFOK 140826Z AUTO 00000KT 1SM -SN VV012 M04/M08 A2961 RMK AO2 P0001 T10441078
KFOK 140753Z AUTO 00000KT 1 1/4SM -SN OVC016 M05/M08 A2964 RMK AO2 SLP035 P0001 T10501083
KFOK 140738Z AUTO 00000KT 1SM -SN VV019 M05/M08 A2964 RMK AO2 P0000 T10501083
KFOK 140719Z AUTO 00000KT 2 1/2SM -SN OVC026 M04/M09 A2965 RMK AO2 P0000 T10441089
KFOK 140709Z AUTO 33004KT 1 3/4SM -SN OVC022 M04/M09 A2965 RMK AO2 P0000 T10441089
KFOK 140653Z AUTO 29007KT 2 1/2SM -SN OVC026 M04/M09 A2967 RMK AO2 UPB03E05SNB02E03B05 SLP046 P0000 T10441094
KFOK 140651Z AUTO 28007KT 2 1/2SM -SN OVC028 M04/M09 A2967 RMK AO2 UPB03E05SNB02E03B05 P0000
KFOK 140553Z AUTO 28012KT 10SM OVC050 M03/M13 A2968 RMK AO2 SLP052 T10281133 11028 21039 53007
KFOK 140453Z AUTO 26012KT 10SM OVC065 M03/M14 A2967 RMK AO2 SLP047 T10281139 400111061
KFOK 140353Z 26011KT 10SM BKN100 BKN120 M03/M14 A2967 RMK AO2 SLP048 T10281139
KFOK 140253Z 26010KT 10SM CLR M03/M14 A2966 RMK AO2 SLP045 T10331139 51007
KFOK 140153Z 27007KT 10SM CLR M03/M14 A2965 RMK AO2 SLP039 T10331139
KFOK 140053Z 24008KT 10SM CLR M03/M14 A2966 RMK AO2 SLP045 T10331144
KFOK 132353Z 27015G20KT 10SM CLR M03/M16 A2964 RMK AO2 SLP037 T10281156 11017 21033 53027
KFOK 132253Z 27011KT 10SM CLR M03/M16 A2962 RMK AO2 PK WND 28027/2155 SLP030 T10281156
KFOK 132153Z 28018G25KT 10SM CLR M02/M16 A2958 RMK AO2 PK WND 27027/2115 SLP017 T10221156 $
KFOK 132053Z 28022G30KT 10SM CLR M02/M14 A2956 RMK AO2 PK WND 27034/2011 SLP010 T10221144 53022 $
KFOK 131953Z 28022G30KT 10SM CLR M02/M13 A2954 RMK AO2 PK WND 27035/1859 SLP003 T10221133
KFOK 131853Z 28019G37KT 10SM BKN041 OVC050 M03/M14 A2951 RMK AO2 PK WND 29037/1847 SLP991 T10281139